Time;durP1;ratioP1;P1;durP2;ratioP2;P2;SDS_P1;SDS_P2;PMS_P1;PMS_P2;Temp;Humidity;BMP_temperature;BMP_pressure;BME280_temperature;BME280_humidity;BME280_pressure;Samples;Min_cycle;Max_cycle;Signal;HPM_P1;HPM_P2
2023/10/05 00:01:30;;;;;;;16.15;3.88;;;;;;;11.62;100.00;102192.84;5073430;28;20043;-64
2023/10/05 00:03:55;;;;;;;15.77;3.83;;;;;;;11.68;100.00;102193.00;5073678;28;20024;-64
2023/10/05 00:06:24;;;;;;;17.50;4.05;;;;;;;11.62;100.00;102187.53;5073672;28;20433;-64
2023/10/05 00:08:52;;;;;;;18.08;3.80;;;;;;;11.62;100.00;102192.84;5073656;28;20361;-63
2023/10/05 00:11:24;;;;;;;16.48;3.95;;;;;;;11.61;100.00;102185.78;5073490;28;20032;-63
2023/10/05 00:13:51;;;;;;;17.80;3.78;;;;;;;11.58;100.00;102198.97;5073211;28;20048;-65
2023/10/05 00:16:22;;;;;;;17.70;4.25;;;;;;;11.56;100.00;102200.66;5073178;28;20105;-65
2023/10/05 00:18:49;;;;;;;18.52;3.97;;;;;;;11.60;100.00;102203.41;5073158;28;20051;-63
2023/10/05 00:21:19;;;;;;;16.65;3.95;;;;;;;11.61;100.00;102199.91;5073250;28;20103;-65
2023/10/05 00:23:56;;;;;;;18.38;3.85;;;;;;;11.61;100.00;102202.56;5072151;28;20392;-64
2023/10/05 00:26:28;;;;;;;17.75;3.78;;;;;;;11.66;100.00;102211.50;5073075;28;20024;-64
2023/10/05 00:31:33;;;;;;;17.92;3.83;;;;;;;11.62;100.00;102208.72;5073436;28;20036;-64
2023/10/05 00:33:58;;;;;;;18.92;4.05;;;;;;;11.57;100.00;102213.06;5072756;28;20052;-68
2023/10/05 00:36:24;;;;;;;15.95;4.00;;;;;;;11.54;100.00;102213.00;5073190;28;20047;-67
2023/10/05 00:38:51;;;;;;;16.63;4.00;;;;;;;11.52;100.00;102224.44;5073251;28;20433;-68
2023/10/05 00:41:16;;;;;;;19.02;3.92;;;;;;;11.53;100.00;102220.03;5072709;28;20034;-66
2023/10/05 00:43:46;;;;;;;16.67;3.70;;;;;;;11.51;100.00;102225.28;5072792;28;20454;-66
2023/10/05 00:46:12;;;;;;;17.85;4.00;;;;;;;11.51;100.00;102225.28;5072954;28;20032;-67
2023/10/05 00:48:42;;;;;;;18.75;4.20;;;;;;;11.52;100.00;102223.56;5073013;28;20063;-67
2023/10/05 00:51:23;;;;;;;16.95;3.78;;;;;;;11.50;100.00;102227.91;5068984;28;20032;-67
2023/10/05 00:53:49;;;;;;;18.05;4.03;;;;;;;11.49;100.00;102227.00;5070804;28;20037;-67
2023/10/05 00:56:18;;;;;;;18.90;3.97;;;;;;;11.52;100.00;102227.06;5072904;28;20040;-67
2023/10/05 00:58:48;;;;;;;18.73;3.92;;;;;;;11.54;100.00;102219.16;5071971;28;20029;-67
2023/10/05 01:01:17;;;;;;;17.27;3.80;;;;;;;11.50;100.00;102228.81;5072551;28;20032;-68
2023/10/05 01:04:29;;;;;;;17.77;3.90;;;;;;;11.54;100.00;102231.53;5072770;28;20082;-68
2023/10/05 01:06:41;;;;;;;18.58;3.92;;;;;;;11.54;100.00;102224.47;5064623;28;20406;-67
2023/10/05 01:09:56;;;;;;;17.95;4.00;;;;;;;11.52;100.00;102236.78;5068955;28;20016;-67
2023/10/05 01:14:45;;;;;;;17.08;4.00;;;;;;;11.52;100.00;102229.72;5068874;28;20056;-65
2023/10/05 01:17:11;;;;;;;18.25;3.80;;;;;;;11.48;100.00;102232.28;5069524;28;20090;-67
2023/10/05 01:19:39;;;;;;;16.48;3.83;;;;;;;11.41;100.00;102228.59;5072459;28;20481;-67
2023/10/05 01:22:10;;;;;;;18.60;3.63;;;;;;;11.44;100.00;102223.34;5071088;28;20032;-65
2023/10/05 01:24:36;;;;;;;19.23;3.90;;;;;;;11.43;100.00;102226.88;5068638;28;20116;-64
2023/10/05 01:27:03;;;;;;;15.68;4.20;;;;;;;11.41;100.00;102219.75;5072212;28;20020;-65
2023/10/05 01:29:28;;;;;;;17.80;3.83;;;;;;;11.39;100.00;102227.66;5072321;28;20494;-65
2023/10/05 01:31:55;;;;;;;18.95;3.90;;;;;;;11.40;100.00;102229.47;5072491;28;20107;-65
2023/10/05 01:34:20;;;;;;;18.63;4.15;;;;;;;11.41;100.00;102217.09;5072215;28;20073;-64
2023/10/05 01:36:45;;;;;;;17.25;3.92;;;;;;;11.43;100.00;102218.94;5072504;28;20158;-62
2023/10/05 01:39:12;;;;;;;19.88;4.03;;;;;;;11.42;100.00;102225.09;5072367;28;20052;-63
2023/10/05 01:41:37;;;;;;;19.67;4.35;;;;;;;11.39;100.00;102227.66;5072263;28;20032;-63
2023/10/05 01:44:04;;;;;;;18.48;4.25;;;;;;;11.34;100.00;102224.91;5072128;28;20356;-64
2023/10/05 01:46:34;;;;;;;16.98;3.83;;;;;;;11.36;100.00;102219.66;5072383;28;20085;-65
2023/10/05 01:48:59;;;;;;;21.23;4.30;;;;;;;11.34;100.00;102216.97;5072361;28;20053;-65
2023/10/05 01:51:25;;;;;;;19.55;4.00;;;;;;;11.30;100.00;102216.84;5072074;28;20457;-64
2023/10/05 01:53:59;;;;;;;19.48;3.97;;;;;;;11.32;100.00;102220.44;5072279;28;20086;-65
2023/10/05 01:56:24;;;;;;;18.60;4.53;;;;;;;11.31;100.00;102216.00;5072284;28;20094;-64
2023/10/05 01:58:51;;;;;;;18.15;4.05;;;;;;;11.31;100.00;102214.25;5072034;28;20028;-65
2023/10/05 02:01:26;;;;;;;20.33;4.30;;;;;;;11.30;100.00;102206.25;5072121;28;20028;-64
2023/10/05 02:03:57;;;;;;;20.15;4.03;;;;;;;11.29;100.00;102207.13;5072274;28;20126;-65
2023/10/05 02:06:23;;;;;;;20.33;4.05;;;;;;;11.29;100.00;102207.13;5072190;28;20422;-68
2023/10/05 02:08:48;;;;;;;17.52;4.10;;;;;;;11.33;100.00;102215.19;5071991;28;20085;-68
2023/10/05 02:11:24;;;;;;;17.95;4.10;;;;;;;11.34;100.00;102218.72;5074944;28;20527;-68
2023/10/05 02:13:51;;;;;;;18.77;4.22;;;;;;;11.32;100.00;102213.38;5075467;28;20028;-67
2023/10/05 02:16:20;;;;;;;18.35;4.10;;;;;;;11.34;100.00;102210.75;5075458;28;20035;-66
2023/10/05 02:18:46;;;;;;;18.85;4.30;;;;;;;11.31;100.00;102203.69;5075959;28;20450;-68
2023/10/05 02:21:17;;;;;;;17.70;3.80;;;;;;;11.32;100.00;102207.19;5075709;28;20112;-67
2023/10/05 02:23:44;;;;;;;17.08;4.10;;;;;;;11.32;100.00;102207.19;5075493;28;20029;-68
2023/10/05 02:26:33;;;;;;;19.42;4.30;;;;;;;11.32;100.00;102207.19;5075620;28;20031;-68
2023/10/05 02:28:58;;;;;;;16.35;3.80;;;;;;;11.30;100.00;102203.59;5074446;28;20056;-67
2023/10/05 02:31:28;;;;;;;17.80;4.10;;;;;;;11.25;100.00;102207.91;5075469;28;20060;-66
2023/10/05 02:33:58;;;;;;;18.80;4.40;;;;;;;11.22;100.00;102199.91;5075214;28;20041;-68
2023/10/05 02:36:26;;;;;;;17.38;4.05;;;;;;;11.23;100.00;102204.34;5075273;28;20029;-68
2023/10/05 02:38:56;;;;;;;17.65;3.95;;;;;;;11.22;100.00;102202.56;5075232;28;20028;-68
2023/10/05 02:41:42;;;;;;;19.13;4.47;;;;;;;11.19;100.00;102197.19;5075382;28;20501;-67
2023/10/05 02:44:17;;;;;;;17.05;3.90;;;;;;;11.13;100.00;102201.47;5071362;28;20085;-68
2023/10/05 02:46:47;;;;;;;19.90;4.00;;;;;;;11.10;100.00;102193.47;5071836;28;20021;-68
2023/10/05 02:49:15;;;;;;;19.05;4.25;;;;;;;11.07;100.00;102187.22;5075050;28;20059;-67
2023/10/05 02:51:41;;;;;;;16.75;4.10;;;;;;;11.05;100.00;102189.81;5074231;28;20028;-66
2023/10/05 02:54:10;;;;;;;20.42;4.30;;;;;;;11.02;100.00;102181.78;5074946;28;20035;-68
2023/10/05 02:56:36;;;;;;;17.35;4.10;;;;;;;10.99;100.00;102185.28;5074816;28;20515;-68
2023/10/05 02:59:07;;;;;;;18.90;4.38;;;;;;;11.01;100.00;102184.41;5074932;28;20460;-68
2023/10/05 03:01:37;;;;;;;19.03;4.50;;;;;;;11.00;100.00;102188.81;5074657;28;20035;-68
2023/10/05 03:04:21;;;;;;;17.02;3.83;;;;;;;10.98;100.00;102180.84;5074612;28;20023;-68
2023/10/05 03:06:48;;;;;;;19.00;4.13;;;;;;;11.07;100.00;102201.34;5072034;28;20017;-68
2023/10/05 03:09:14;;;;;;;19.30;4.30;;;;;;;11.09;100.00;102183.72;5074801;28;20054;-68
2023/10/05 03:11:41;;;;;;;18.88;4.40;;;;;;;11.06;100.00;102188.06;5074546;28;20063;-68
2023/10/05 03:14:11;;;;;;;19.20;4.28;;;;;;;11.01;100.00;102180.03;5070485;28;20065;-68
2023/10/05 03:16:43;;;;;;;19.52;4.30;;;;;;;10.93;100.00;102174.53;5070752;28;20028;-68
2023/10/05 03:19:16;;;;;;;20.15;4.50;;;;;;;10.96;100.00;102185.19;5070986;28;20024;-67
2023/10/05 03:21:45;;;;;;;17.70;4.35;;;;;;;10.92;100.00;102177.13;5070254;28;20036;-67
2023/10/05 03:24:13;;;;;;;19.08;4.30;;;;;;;10.94;100.00;102183.38;5074642;28;20111;-65
2023/10/05 03:26:42;;;;;;;19.30;4.50;;;;;;;10.94;100.00;102188.69;5070639;28;20472;-64
2023/10/05 03:29:11;;;;;;;20.70;4.60;;;;;;;10.94;100.00;102180.75;5070549;28;20029;-63
2023/10/05 03:31:43;;;;;;;16.95;4.10;;;;;;;10.94;100.00;102178.97;5070151;28;20067;-64
2023/10/05 03:34:09;;;;;;;19.35;4.78;;;;;;;10.94;100.00;102173.69;5070272;28;20617;-65
2023/10/05 03:36:35;;;;;;;17.42;4.30;;;;;;;10.90;100.00;102171.81;5074253;28;20025;-64
2023/10/05 03:39:06;;;;;;;19.85;4.35;;;;;;;10.92;100.00;102177.13;5072521;28;20093;-64
2023/10/05 03:41:32;;;;;;;19.15;4.35;;;;;;;10.87;100.00;102176.16;5074140;28;20492;-65
2023/10/05 03:44:02;;;;;;;18.27;4.60;;;;;;;10.85;100.00;102180.50;5074076;28;20056;-64
2023/10/05 03:46:28;;;;;;;16.15;4.10;;;;;;;10.85;100.00;102172.56;5074056;28;20059;-64
2023/10/05 03:49:00;;;;;;;17.35;4.30;;;;;;;10.82;100.00;102187.50;5073716;28;20459;-64
2023/10/05 03:51:25;;;;;;;17.98;4.55;;;;;;;10.78;100.00;102188.28;5073909;28;20055;-64
2023/10/05 03:53:51;;;;;;;19.13;4.50;;;;;;;10.78;100.00;102190.06;5073910;28;20496;-64
2023/10/05 03:56:19;;;;;;;18.70;4.53;;;;;;;10.80;100.00;102190.97;5073655;28;20037;-64
2023/10/05 03:58:46;;;;;;;17.80;4.35;;;;;;;10.84;100.00;102178.72;5073713;28;20016;-61
2023/10/05 04:01:12;;;;;;;16.02;4.15;;;;;;;10.81;100.00;102171.59;5073844;28;20436;-65
2023/10/05 04:03:38;;;;;;;14.93;4.10;;;;;;;10.87;100.00;102173.50;5073747;28;20052;-65
2023/10/05 04:06:17;;;;;;;18.42;4.47;;;;;;;10.77;100.00;102165.31;5073675;28;20029;-63
2023/10/05 04:08:57;;;;;;;18.85;4.35;;;;;;;10.72;100.00;102177.56;5070609;28;20028;-67
2023/10/05 04:11:24;;;;;;;20.48;4.45;;;;;;;10.71;100.00;102178.41;5073560;28;20029;-68
2023/10/05 04:13:50;;;;;;;20.15;4.80;;;;;;;10.67;100.00;102176.53;5073263;28;20016;-68
2023/10/05 04:16:26;;;;;;;18.05;4.47;;;;;;;10.60;100.00;102183.44;5073469;28;20028;-66
2023/10/05 04:18:53;;;;;;;18.75;4.45;;;;;;;10.51;100.00;102180.53;5073423;28;20103;-65
2023/10/05 04:21:18;;;;;;;20.25;4.75;;;;;;;10.48;100.00;102185.75;5073127;28;20029;-64
2023/10/05 04:23:50;;;;;;;19.33;4.53;;;;;;;10.51;100.00;102187.59;5073058;28;20027;-67
2023/10/05 04:26:24;;;;;;;21.53;4.93;;;;;;;10.45;100.00;102178.63;5073116;28;20044;-64
2023/10/05 04:28:54;;;;;;;18.90;5.10;;;;;;;10.42;100.00;102189.13;5073399;28;20425;-66
2023/10/05 04:31:22;;;;;;;20.38;4.70;;;;;;;10.41;100.00;102184.72;5073105;28;20028;-65
2023/10/05 04:33:53;;;;;;;17.80;4.70;;;;;;;10.37;100.00;102185.47;5071860;28;20031;-66
2023/10/05 04:36:22;;;;;;;21.92;5.25;;;;;;;10.40;100.00;102180.28;5073327;28;20032;-66
2023/10/05 04:38:47;;;;;;;16.70;4.50;;;;;;;10.41;100.00;102194.38;5072948;28;20021;-65
2023/10/05 04:41:13;;;;;;;18.75;4.75;;;;;;;10.37;100.00;102188.13;5072817;28;20031;-66
2023/10/05 04:43:43;;;;;;;18.58;4.53;;;;;;;10.41;100.00;102187.34;5073094;28;20029;-64
2023/10/05 04:46:09;;;;;;;19.95;4.68;;;;;;;10.44;100.00;102184.78;5069091;28;20024;-61
2023/10/05 04:48:35;;;;;;;20.35;5.07;;;;;;;10.49;100.00;102181.38;5072690;28;20156;-67
2023/10/05 04:51:01;;;;;;;20.50;5.40;;;;;;;10.51;100.00;102185.81;5072667;28;20060;-66
2023/10/05 04:53:27;;;;;;;20.38;5.07;;;;;;;10.51;100.00;102190.22;5072861;28;20036;-66
2023/10/05 04:56:00;;;;;;;18.63;4.57;;;;;;;10.49;100.00;102186.66;5072682;28;20033;-66
2023/10/05 04:58:53;;;;;;;20.67;5.18;;;;;;;10.49;100.00;102187.56;5072602;28;20029;-67
2023/10/05 05:01:32;;;;;;;18.65;4.88;;;;;;;10.52;100.00;102178.81;5068799;28;20041;-64
2023/10/05 05:04:13;;;;;;;19.92;5.25;;;;;;;10.54;100.00;102174.44;5071277;28;20119;-66
2023/10/05 05:06:41;;;;;;;21.00;5.20;;;;;;;10.54;100.00;102182.38;5068789;28;20493;-64
2023/10/05 05:09:11;;;;;;;18.85;4.80;;;;;;;10.54;100.00;102178.00;5072737;28;20027;-64
2023/10/05 05:11:37;;;;;;;18.88;4.85;;;;;;;10.58;100.00;102185.13;5072813;28;20020;-65
2023/10/05 05:14:04;;;;;;;20.13;5.25;;;;;;;10.57;100.00;102193.03;5072465;28;20056;-63
2023/10/05 05:16:29;;;;;;;19.67;5.10;;;;;;;10.54;100.00;102187.66;5073001;28;20395;-64
2023/10/05 05:18:55;;;;;;;20.58;5.22;;;;;;;10.57;100.00;102185.09;5072461;28;20029;-65
2023/10/05 05:21:21;;;;;;;19.38;4.93;;;;;;;10.57;100.00;102187.75;5072350;28;20158;-64
2023/10/05 05:23:49;;;;;;;19.98;4.90;;;;;;;10.59;100.00;102192.22;5072562;28;20493;-65
2023/10/05 05:26:14;;;;;;;20.00;4.90;;;;;;;10.61;100.00;102189.63;5072335;28;20029;-64
2023/10/05 05:28:43;;;;;;;22.00;5.18;;;;;;;10.59;100.00;102197.50;5069349;28;20036;-65
2023/10/05 05:31:14;;;;;;;17.90;4.90;;;;;;;10.63;100.00;102206.44;5070577;28;20025;-63
2023/10/05 05:33:41;;;;;;;20.60;5.03;;;;;;;10.62;100.00;102204.63;5065543;28;20031;-65
2023/10/05 05:36:11;;;;;;;21.58;5.15;;;;;;;10.60;100.00;102203.69;5067508;28;20017;-65
2023/10/05 05:38:40;;;;;;;21.20;5.32;;;;;;;10.56;100.00;102208.00;5068349;28;20025;-64
2023/10/05 05:41:11;;;;;;;19.52;5.03;;;;;;;10.55;100.00;102195.63;5072035;28;20113;-64
2023/10/05 05:43:36;;;;;;;21.10;5.25;;;;;;;10.61;100.00;102210.75;5071859;28;20032;-62
2023/10/05 05:46:02;;;;;;;21.70;5.35;;;;;;;10.69;100.00;102213.59;5074502;28;20111;-62
2023/10/05 05:48:27;;;;;;;19.92;5.28;;;;;;;10.74;100.00;102214.63;5076117;28;20032;-63
2023/10/05 05:50:53;;;;;;;20.08;5.05;;;;;;;10.76;100.00;102208.53;5074635;28;20498;-63
2023/10/05 05:53:18;;;;;;;20.05;5.10;;;;;;;10.78;100.00;102211.22;5075912;28;20463;-64
2023/10/05 05:55:44;;;;;;;20.85;5.15;;;;;;;10.83;100.00;102222.78;5076112;28;20384;-70
2023/10/05 05:58:14;;;;;;;23.70;5.30;;;;;;;10.82;100.00;102216.59;5075308;28;20375;-71
2023/10/05 06:00:40;;;;;;;20.70;5.32;;;;;;;10.85;100.00;102215.78;5075855;28;20021;-70
2023/10/05 06:03:10;;;;;;;21.50;4.95;;;;;;;10.87;100.00;102208.78;5075538;28;20055;-70
2023/10/05 06:05:35;;;;;;;20.80;5.05;;;;;;;10.88;100.00;102205.28;5075583;28;20507;-70
2023/10/05 06:08:02;;;;;;;20.35;5.60;;;;;;;10.91;100.00;102209.78;5075159;28;20033;-69
2023/10/05 06:10:34;;;;;;;21.48;5.40;;;;;;;10.90;100.00;102208.84;5072818;28;20025;-69
2023/10/05 06:12:59;;;;;;;18.90;5.07;;;;;;;10.94;100.00;102215.13;5073575;28;20028;-70
2023/10/05 06:15:25;;;;;;;20.30;5.30;;;;;;;10.95;100.00;102216.91;5073878;28;20024;-69
2023/10/05 06:17:50;;;;;;;22.23;5.82;;;;;;;10.97;100.00;102217.84;5074475;28;20035;-72
2023/10/05 06:20:17;;;;;;;20.58;5.40;;;;;;;10.99;100.00;102232.00;5055762;28;20064;-70
2023/10/05 06:22:44;;;;;;;21.88;5.45;;;;;;;11.01;100.00;102232.94;5070129;28;20040;-71
2023/10/05 06:25:17;;;;;;;20.77;5.30;;;;;;;11.06;100.00;102233.06;5073910;28;20360;-71
2023/10/05 06:27:49;;;;;;;;;;;;;;;11.12;100.00;102238.50;5073845;28;20479;-70
2023/10/05 06:30:15;;;;;;;19.20;5.00;;;;;;;11.18;100.00;102237.75;5074985;28;20342;-68
2023/10/05 06:32:43;;;;;;;21.13;5.20;;;;;;;11.25;100.00;102247.63;5073688;28;20029;-68
2023/10/05 06:35:09;;;;;;;19.55;4.82;;;;;;;11.29;100.00;102250.38;5072934;28;20036;-68
2023/10/05 06:37:41;;;;;;;20.30;4.90;;;;;;;11.34;100.00;102245.19;5072715;28;20085;-69
2023/10/05 06:40:13;;;;;;;18.70;4.72;;;;;;;11.37;100.00;102242.59;5073632;28;20028;-69
2023/10/05 06:42:43;;;;;;;19.00;4.70;;;;;;;11.40;100.00;102250.66;5073479;28;20048;-66
2023/10/05 06:45:13;;;;;;;20.38;4.97;;;;;;;11.46;100.00;102249.88;5073154;28;20036;-67
2023/10/05 06:47:39;;;;;;;19.30;4.80;;;;;;;11.49;100.00;102248.19;5072921;28;20563;-68
2023/10/05 06:50:10;;;;;;;20.90;4.93;;;;;;;11.54;100.00;102252.72;5074166;28;20028;-68
2023/10/05 06:52:39;;;;;;;20.67;4.95;;;;;;;11.54;100.00;102250.94;5073210;28;20024;-69
2023/10/05 06:55:07;;;;;;;18.73;4.80;;;;;;;11.61;100.00;102265.22;5071900;28;20024;-69
2023/10/05 06:57:36;;;;;;;20.13;4.80;;;;;;;11.62;100.00;102261.69;5072105;28;20021;-68
2023/10/05 07:00:16;;;;;;;21.40;5.07;;;;;;;11.64;100.00;102267.94;5073255;28;20025;-68
2023/10/05 07:02:42;;;;;;;19.02;5.00;;;;;;;11.66;100.00;102272.44;5071578;28;20477;-67
2023/10/05 07:05:08;;;;;;;20.02;4.80;;;;;;;11.70;100.00;102276.03;5067229;28;20171;-66
2023/10/05 07:07:35;;;;;;;20.10;4.85;;;;;;;11.73;100.00;102276.09;5074379;28;20115;-67
2023/10/05 07:10:03;;;;;;;20.30;4.88;;;;;;;11.77;100.00;102280.59;5073869;28;20494;-67
2023/10/05 07:12:29;;;;;;;19.63;4.80;;;;;;;11.81;100.00;102273.59;5074446;28;20025;-67
2023/10/05 07:14:56;;;;;;;20.08;5.22;;;;;;;11.85;100.00;102276.38;5074823;28;20082;-64
2023/10/05 07:17:21;;;;;;;19.90;5.55;;;;;;;11.93;100.00;102283.59;5074371;28;20043;-67
2023/10/05 07:19:49;;;;;;;20.02;4.70;;;;;;;12.02;100.00;102286.47;5070198;28;20468;-64
2023/10/05 07:22:16;;;;;;;21.92;5.20;;;;;;;12.11;100.00;102291.94;5073870;28;20040;-64
2023/10/05 07:24:42;;;;;;;19.50;5.05;;;;;;;12.23;100.00;102287.78;5074333;28;20029;-62
2023/10/05 07:27:07;;;;;;;20.02;4.90;;;;;;;12.31;100.00;102283.53;5074691;28;20027;-66
2023/10/05 07:29:33;;;;;;;19.10;4.82;;;;;;;12.39;100.00;102281.91;5074243;28;20043;-62
2023/10/05 07:31:58;;;;;;;21.08;5.10;;;;;;;12.50;100.00;102287.44;5074077;28;20085;-64
2023/10/05 07:34:24;;;;;;;19.25;4.97;;;;;;;12.61;100.00;102300.88;5073987;28;20117;-66
2023/10/05 07:36:50;;;;;;;18.00;4.57;;;;;;;12.68;100.00;102303.72;5074251;28;20025;-66
2023/10/05 07:39:18;;;;;;;19.17;4.90;;;;;;;12.75;100.00;102309.13;5073941;28;20123;-63
2023/10/05 07:41:45;;;;;;;20.45;5.25;;;;;;;12.82;100.00;102295.09;5073770;28;20025;-62
2023/10/05 07:44:11;;;;;;;19.23;4.85;;;;;;;12.86;100.00;102304.91;5074120;28;20099;-65
2023/10/05 07:46:38;;;;;;;18.17;4.60;;;;;;;12.88;100.00;102309.34;5073891;28;20046;-66
2023/10/05 07:49:03;;;;;;;19.02;4.75;;;;;;;12.91;100.00;102300.56;5072505;28;20029;-63
2023/10/05 07:51:29;;;;;;;19.88;4.68;;;;;;;13.00;100.00;102307.81;5073962;28;20032;-64
2023/10/05 07:53:54;;;;;;;18.67;4.40;;;;;;;13.12;100.00;102310.69;5073663;28;20028;-65
2023/10/05 07:56:19;;;;;;;19.63;4.88;;;;;;;13.24;100.00;102312.66;5073602;28;20032;-64
2023/10/05 07:58:45;;;;;;;18.48;4.65;;;;;;;13.36;100.00;102307.56;5073646;28;20037;-67
2023/10/05 08:01:10;;;;;;;18.27;4.25;;;;;;;13.57;100.00;102320.28;5068330;28;20445;-64
2023/10/05 08:03:39;;;;;;;19.67;4.47;;;;;;;13.76;100.00;102317.88;5071744;28;20483;-65
2023/10/05 08:06:05;;;;;;;19.08;4.60;;;;;;;13.86;100.00;102314.53;5071141;28;20198;-67
2023/10/05 08:08:31;;;;;;;18.60;4.40;;;;;;;13.93;100.00;102313.69;5070579;28;20609;-64
2023/10/05 08:10:56;;;;;;;19.30;4.50;;;;;;;14.02;100.00;102320.91;5067836;28;20464;-65
2023/10/05 08:13:23;;;;;;;19.15;4.35;;;;;;;14.17;100.00;102316.66;5071533;28;20017;-62
2023/10/05 08:15:48;;;;;;;19.50;4.50;;;;;;;14.32;100.00;102313.34;5071777;28;20112;-74
2023/10/05 08:18:13;;;;;;;17.98;4.38;;;;;;;14.53;100.00;102318.00;5071952;28;20124;-73
2023/10/05 08:20:39;;;;;;;19.75;4.35;;;;;;;14.61;100.00;102314.56;5069708;28;20036;-72
2023/10/05 08:23:06;;;;;;;17.75;4.15;;;;;;;14.68;100.00;102306.66;5072915;28;20450;-71
2023/10/05 08:25:31;;;;;;;18.20;4.07;;;;;;;14.66;100.00;102311.09;5072553;28;20029;-68
2023/10/05 08:27:57;;;;;;;17.90;4.30;;;;;;;14.64;100.00;102322.59;5073322;28;20016;-73
2023/10/05 08:30:25;;;;;;;18.20;4.30;;;;;;;14.62;100.00;102318.13;5072949;28;20186;-71
2023/10/05 08:32:50;;;;;;;17.08;4.10;;;;;;;14.53;100.00;102323.31;5072858;28;20430;-72
2023/10/05 08:35:19;;;;;;;19.20;4.10;;;;;;;14.52;100.00;102321.53;5072886;28;20048;-71
2023/10/05 08:37:49;;;;;;;23.02;4.80;;;;;;;14.54;100.00;102320.66;5072364;28;20075;-69
2023/10/05 08:40:37;;;;;;;19.95;4.45;;;;;;;14.53;100.00;102323.31;5072631;28;20097;-68
2023/10/05 08:43:10;;;;;;;19.20;4.40;;;;;;;14.53;100.00;102328.63;5070665;28;20593;-71
2023/10/05 08:45:47;;;;;;;17.17;4.22;;;;;;;14.61;100.00;102335.88;5072796;28;20054;-71
2023/10/05 08:48:28;;;;;;;18.15;4.63;;;;;;;14.80;100.00;102336.06;5071504;28;20028;-71
2023/10/05 08:50:58;;;;;;;18.13;4.35;;;;;;;14.75;100.00;102338.69;5069503;28;20367;-70
2023/10/05 08:53:23;;;;;;;17.42;4.10;;;;;;;14.60;100.00;102336.69;5072819;28;20070;-72
2023/10/05 08:55:53;;;;;;;19.83;4.70;;;;;;;14.64;100.00;102337.69;5072549;28;20430;-67
2023/10/05 08:58:18;;;;;;;18.35;4.30;;;;;;;14.69;100.00;102351.91;5072644;28;20036;-67
2023/10/05 09:00:51;;;;;;;16.95;4.07;;;;;;;14.82;100.00;102343.22;5071459;28;20426;-69
2023/10/05 09:03:29;;;;;;;19.55;4.55;;;;;;;14.90;100.00;102343.28;5070909;28;20039;-68
2023/10/05 09:06:13;;;;;;;18.73;4.25;;;;;;;14.93;100.00;102351.28;5070613;28;20032;-68
2023/10/05 09:08:52;;;;;;;19.48;4.10;;;;;;;14.87;100.00;102356.56;5070815;28;20021;-68
2023/10/05 09:11:20;;;;;;;18.42;4.57;;;;;;;14.96;100.00;102361.97;5072176;28;20074;-70
2023/10/05 09:13:46;;;;;;;19.20;4.38;;;;;;;15.10;100.00;102370.09;5070656;28;20035;-68
2023/10/05 09:16:15;;;;;;;18.00;4.20;;;;;;;15.16;100.00;102377.28;5071339;28;20025;-70
2023/10/05 09:18:49;;;;;;;18.05;4.30;;;;;;;15.04;100.00;102380.69;5069231;28;20040;-70
2023/10/05 09:21:19;;;;;;;17.73;4.30;;;;;;;15.03;100.00;102376.25;5077223;28;20032;-69
2023/10/05 09:23:45;;;;;;;17.90;4.25;;;;;;;15.12;100.00;102386.09;5074778;28;20487;-66
2023/10/05 09:26:39;;;;;;;21.63;4.50;;;;;;;15.12;100.00;102391.44;5078700;28;20095;-66
2023/10/05 09:29:22;;;;;;;19.45;4.60;;;;;;;15.09;100.00;102392.28;5074820;28;20078;-66
2023/10/05 09:31:53;;;;;;;19.38;4.40;;;;;;;15.21;100.00;102382.63;5072714;28;20098;-66
2023/10/05 09:34:35;;;;;;;18.98;4.55;;;;;;;15.35;100.00;102386.31;5075218;28;20044;-64
2023/10/05 09:37:06;;;;;;;18.23;4.30;;;;;;;15.21;100.00;102387.97;5078747;28;20036;-66
2023/10/05 09:39:49;;;;;;;19.23;4.55;;;;;;;15.38;100.00;102388.09;5078842;28;20025;-69
2023/10/05 09:42:16;;;;;;;;;;;;;;;15.46;100.00;102391.72;5075533;28;20058;-68
2023/10/05 09:45:08;;;;;;;18.33;4.20;;;;;;;15.33;100.00;102383.66;5078993;28;19938;-67
2023/10/05 09:47:35;;;;;;;19.17;4.38;;;;;;;15.32;100.00;102379.19;5078883;28;20029;-67
2023/10/05 09:50:09;;;;;;;19.85;4.40;;;;;;;15.24;100.00;102388.00;5078770;28;20387;-67
2023/10/05 09:52:36;;;;;;;18.67;4.20;;;;;;;15.10;100.00;102388.75;5075487;28;20024;-62
2023/10/05 09:55:06;;;;;;;19.05;4.40;;;;;;;14.98;100.00;102384.19;5074697;28;20028;-67
2023/10/05 09:57:46;;;;;;;19.65;4.68;;;;;;;15.03;100.00;102397.56;5078514;28;20070;-67
2023/10/05 10:00:47;;;;;;;19.77;4.20;;;;;;;15.12;100.00;102386.09;5078896;28;20028;-67
2023/10/05 10:03:14;;;;;;;18.27;4.25;;;;;;;15.09;100.00;102397.63;5077729;28;20043;-67
2023/10/05 10:05:51;;;;;;;20.08;4.47;;;;;;;15.21;100.00;102388.84;5078665;28;20378;-68
2023/10/05 10:08:26;;;;;;;17.83;4.35;;;;;;;15.23;100.00;102387.09;5078626;28;20038;-67
2023/10/05 10:11:17;;;;;;;19.92;4.78;;;;;;;15.22;100.00;102395.97;5075082;28;20063;-66
2023/10/05 10:13:50;;;;;;;18.80;4.50;;;;;;;15.33;100.00;102394.31;5078096;28;20028;-67
2023/10/05 10:16:23;;;;;;;19.92;4.63;;;;;;;15.45;100.00;102392.59;5076410;28;20029;-67
2023/10/05 10:19:04;;;;;;;20.33;4.70;;;;;;;15.51;100.00;102398.88;5078267;28;20082;-67
2023/10/05 10:21:41;;;;;;;18.13;4.32;;;;;;;15.44;100.00;102396.16;5074377;28;20112;-63
2023/10/05 10:24:08;;;;;;;18.13;4.40;;;;;;;15.37;100.00;102394.31;5074545;28;20020;-69
2023/10/05 10:26:53;;;;;;;18.60;4.00;;;;;;;15.50;100.00;102388.22;5078296;28;20115;-67
2023/10/05 10:29:22;;;;;;;20.13;4.50;;;;;;;15.50;100.00;102382.88;5074906;28;20024;-66
2023/10/05 10:32:20;;;;;;;18.08;4.38;;;;;;;15.68;100.00;102390.13;5076363;28;20112;-62
2023/10/05 10:34:52;;;;;;;16.42;4.10;;;;;;;15.90;100.00;102379.66;5069613;28;20085;-65
2023/10/05 10:37:40;;;;;;;19.50;4.32;;;;;;;16.30;100.00;102391.44;5075246;28;20384;-70
2023/10/05 10:45:36;;;;;;;18.20;4.10;;;;;;;17.37;100.00;102384.66;5071164;28;20032;-66
2023/10/05 10:48:12;;;;;;;18.42;4.38;;;;;;;18.02;100.00;102394.44;5074981;28;20029;-68
2023/10/05 10:50:39;;;;;;;17.42;4.30;;;;;;;18.23;100.00;102388.13;5074975;28;20090;-66
2023/10/05 10:53:18;;;;;;;14.38;3.78;;;;;;;18.74;100.00;102386.13;5074934;28;20456;-67
2023/10/05 10:56:04;;;;;;;19.48;4.18;;;;;;;19.28;100.00;102382.22;5074825;28;20077;-66
2023/10/05 10:58:34;;;;;;;18.10;3.90;;;;;;;20.43;100.00;102372.16;5072298;28;20052;-70
2023/10/05 11:01:13;;;;;;;15.80;4.00;;;;;;;21.28;100.00;102380.84;5074657;28;20024;-67
2023/10/05 11:03:41;;;;;;;16.45;3.92;;;;;;;21.20;100.00;102375.56;5074795;28;20372;-68
2023/10/05 11:06:09;;;;;;;16.75;3.88;;;;;;;21.66;100.00;102376.63;5074758;28;20024;-68
2023/10/05 11:08:40;;;;;;;15.57;3.80;;;;;;;;;;5072383;28;20483;-68
2023/10/05 11:11:15;;;;;;;17.63;3.80;;;;;;;22.46;100.00;102373.28;5072052;28;20048;-68
2023/10/05 11:13:45;;;;;;;16.35;3.63;;;;;;;22.97;100.00;102385.63;5074358;28;20040;-68
2023/10/05 11:16:11;;;;;;;18.88;4.28;;;;;;;22.58;100.00;102384.72;5074263;28;20073;-64
2023/10/05 11:18:50;;;;;;;19.27;3.90;;;;;;;21.76;100.00;102383.63;5074586;28;20029;-63
2023/10/05 11:21:18;;;;;;;16.70;3.90;;;;;;;22.25;100.00;102379.06;5074278;28;20368;-63
2023/10/05 11:23:57;;;;;;;15.20;3.70;;;;;;;22.71;100.00;102388.03;5070108;28;20024;-63
2023/10/05 11:26:36;;;;;;;18.27;4.00;;;;;;;22.50;100.00;102376.81;5071405;28;20472;-65
2023/10/05 11:29:07;;;;;;;17.63;3.90;;;;;;;23.07;100.00;102374.63;5074053;28;20081;-66
2023/10/05 11:31:34;;;;;;;17.13;3.60;;;;;;;23.98;100.00;102375.94;5074127;28;20123;-66
2023/10/05 11:34:09;;;;;;;15.85;4.00;;;;;;;23.76;100.00;102366.59;5072127;28;20028;-67